Time;durP1;ratioP1;P1;durP2;ratioP2;P2;SDS_P1;SDS_P2;PMS_P1;PMS_P2;Temp;Humidity;BMP_temperature;BMP_pressure;BME280_temperature;BME280_humidity;BME280_pressure;Samples;Min_cycle;Max_cycle;Signal;HPM_P1;HPM_P2
2023/12/18 00:00:20;;;;;;;24.33;11.25;;;;;;;1.08;100.00;103048.25;5013561;28;20046;-70
2023/12/18 00:02:46;;;;;;;23.75;10.98;;;;;;;1.07;100.00;103051.69;5013319;28;20026;-70
2023/12/18 00:05:11;;;;;;;40.88;17.25;;;;;;;1.04;100.00;103056.06;5014443;28;21659;-71
2023/12/18 00:07:37;;;;;;;78.38;28.65;;;;;;;0.98;100.00;103059.59;5008299;28;20392;-70
2023/12/18 00:10:02;;;;;;;60.67;22.95;;;;;;;0.96;100.00;103063.88;5014045;28;20038;-70
2023/12/18 00:12:28;;;;;;;57.92;21.15;;;;;;;0.90;100.00;103057.22;5013924;28;20033;-70
2023/12/18 00:14:53;;;;;;;50.63;18.05;;;;;;;0.87;100.00;103059.03;5010096;28;20037;-70
2023/12/18 00:17:19;;;;;;;37.03;15.32;;;;;;;0.83;100.00;103058.25;5013826;28;20037;-70
2023/12/18 00:19:44;;;;;;;23.90;10.68;;;;;;;0.88;100.00;103056.41;5012167;28;20145;-71
2023/12/18 00:22:10;;;;;;;21.08;9.88;;;;;;;0.86;100.00;103054.78;5012916;28;20026;-71
2023/12/18 00:24:35;;;;;;;25.40;11.15;;;;;;;0.85;100.00;103043.75;5014173;28;20034;-70
2023/12/18 00:27:01;;;;;;;22.38;10.60;;;;;;;0.81;100.00;103049.81;5009054;28;20049;-70
2023/12/18 00:29:26;;;;;;;23.80;10.18;;;;;;;0.80;100.00;103045.56;5011900;28;20030;-71
2023/12/18 00:31:51;;;;;;;22.55;10.38;;;;;;;0.77;100.00;103037.97;5007929;28;20495;-70
2023/12/18 00:34:17;;;;;;;16.92;8.68;;;;;;;0.74;100.00;103036.34;4997604;28;20436;-70
2023/12/18 00:36:43;;;;;;;16.35;9.77;;;;;;;0.73;100.00;103036.34;5012527;28;20041;-71
2023/12/18 00:39:08;;;;;;;19.35;9.25;;;;;;;0.73;100.00;103046.56;5013247;28;20610;-70
2023/12/18 00:41:34;;;;;;;18.85;9.15;;;;;;;0.72;100.00;103047.47;5012657;28;20034;-71
2023/12/18 00:44:00;;;;;;;17.88;8.95;;;;;;;0.72;100.00;103047.47;5000952;28;20038;-71
2023/12/18 00:46:25;;;;;;;20.30;9.77;;;;;;;0.71;100.00;103036.38;5008671;28;20128;-70
2023/12/18 00:48:51;;;;;;;18.25;8.70;;;;;;;0.68;100.00;103033.06;5000847;28;20057;-70
2023/12/18 00:51:17;;;;;;;20.13;9.50;;;;;;;0.65;100.00;103035.72;5009558;28;20069;-70
2023/12/18 00:53:42;;;;;;;19.92;9.77;;;;;;;0.64;100.00;103031.47;5011115;28;20037;-71
2023/12/18 00:56:08;;;;;;;23.45;9.45;;;;;;;0.61;100.00;103029.00;5010564;28;20050;-70
2023/12/18 00:58:33;;;;;;;20.95;8.32;;;;;;;0.59;100.00;103041.81;5011658;28;20026;-71
2023/12/18 01:00:59;;;;;;;18.55;8.75;;;;;;;0.57;100.00;103041.84;5008194;28;20498;-70
2023/12/18 01:03:24;;;;;;;23.58;9.95;;;;;;;0.58;100.00;103040.13;5010851;28;20421;-70
2023/12/18 01:05:49;;;;;;;17.52;9.10;;;;;;;0.61;100.00;103029.84;5008282;28;22100;-71
2023/12/18 01:08:15;;;;;;;17.88;8.77;;;;;;;0.60;100.00;103029.88;5007886;28;20551;-70
2023/12/18 01:10:41;;;;;;;22.27;9.50;;;;;;;0.58;100.00;103033.31;5013775;28;20695;-70
2023/12/18 01:13:06;;;;;;;15.95;7.82;;;;;;;0.58;100.00;103038.44;4993827;28;20771;-70
2023/12/18 01:15:32;;;;;;;22.58;9.15;;;;;;;0.58;100.00;103033.31;5009140;28;20104;-70
2023/12/18 01:17:57;;;;;;;20.02;9.18;;;;;;;0.59;100.00;103029.03;5012375;28;20085;-70
2023/12/18 01:20:23;;;;;;;19.67;8.85;;;;;;;0.60;100.00;103030.69;5004092;28;20046;-70
2023/12/18 01:22:48;;;;;;;23.02;8.77;;;;;;;0.60;100.00;103038.38;5011501;28;20802;-70
2023/12/18 01:25:14;;;;;;;15.80;8.18;;;;;;;0.62;100.00;103033.22;5007630;28;20030;-70
2023/12/18 01:27:42;;;;;;;21.67;8.45;;;;;;;0.58;100.00;103030.78;5010517;28;21235;-70
2023/12/18 01:30:08;;;;;;;17.73;8.15;;;;;;;0.60;100.00;103040.09;5010086;28;20066;-70
2023/12/18 01:32:34;;;;;;;15.68;8.02;;;;;;;0.61;100.00;103029.84;5009545;28;20076;-71
2023/12/18 01:35:00;;;;;;;23.85;9.88;;;;;;;0.62;100.00;103028.13;5004593;28;20089;-70
2023/12/18 01:37:26;;;;;;;23.92;7.93;;;;;;;0.60;100.00;103035.81;5010263;28;20532;-70
2023/12/18 01:39:52;;;;;;;17.08;6.97;;;;;;;0.64;100.00;103032.34;5006714;28;20046;-71
2023/12/18 01:42:17;;;;;;;19.27;6.78;;;;;;;0.67;100.00;103039.06;5011585;28;20038;-70
2023/12/18 01:44:43;;;;;;;20.20;7.45;;;;;;;0.66;100.00;103042.50;5009086;28;20049;-70
2023/12/18 01:47:08;;;;;;;17.65;7.00;;;;;;;0.64;100.00;103045.09;5009222;28;20101;-70
2023/12/18 01:49:35;;;;;;;20.17;7.45;;;;;;;0.63;100.00;103045.13;5009889;28;20033;-70
2023/12/18 01:52:00;;;;;;;21.52;7.88;;;;;;;0.63;100.00;103048.53;5011475;28;20042;-70
2023/12/18 01:54:26;;;;;;;16.35;6.82;;;;;;;0.66;100.00;103047.59;5010893;28;20026;-70
2023/12/18 01:56:54;;;;;;;14.93;7.20;;;;;;;0.62;100.00;103046.81;5008582;28;20091;-70
2023/12/18 01:59:20;;;;;;;19.40;7.15;;;;;;;0.65;100.00;103043.38;5007706;28;20152;-70
2023/12/18 02:01:47;;;;;;;16.73;6.78;;;;;;;0.65;100.00;103043.38;5012136;28;20431;-70
2023/12/18 02:04:13;;;;;;;14.43;6.72;;;;;;;0.63;100.00;103045.13;5011433;28;20624;-70
2023/12/18 02:06:38;;;;;;;19.92;7.07;;;;;;;0.68;100.00;103039.03;5008356;28;20042;-70
2023/12/18 02:09:04;;;;;;;11.23;6.32;;;;;;;0.77;100.00;103043.94;5009087;28;20064;-70
2023/12/18 02:11:29;;;;;;;20.35;6.10;;;;;;;0.77;100.00;103043.94;5007510;28;20029;-70
2023/12/18 02:13:55;;;;;;;20.92;6.88;;;;;;;0.75;100.00;103045.69;5009161;28;20616;-70
2023/12/18 02:16:22;;;;;;;16.13;6.22;;;;;;;0.74;100.00;103046.53;5008016;28;20088;-70
2023/12/18 02:18:48;;;;;;;18.63;5.88;;;;;;;0.78;100.00;103053.25;5005485;28;20038;-70
2023/12/18 02:21:21;;;;;;;18.63;6.95;;;;;;;0.79;100.00;103048.97;5008505;28;20165;-70
2023/12/18 02:23:47;;;;;;;17.70;6.70;;;;;;;0.80;100.00;103052.38;5010279;28;20033;-70
2023/12/18 02:26:14;;;;;;;17.10;6.70;;;;;;;0.78;100.00;103050.69;5007094;28;20575;-70
2023/12/18 02:28:40;;;;;;;16.77;6.47;;;;;;;0.86;100.00;103053.06;5006320;28;20080;-70
2023/12/18 02:31:07;;;;;;;18.58;6.60;;;;;;;0.84;100.00;103056.53;5008014;28;20038;-70
2023/12/18 02:33:32;;;;;;;13.77;7.03;;;;;;;0.80;100.00;103053.22;5011495;28;20302;-70
2023/12/18 02:35:59;;;;;;;20.08;7.82;;;;;;;0.78;100.00;103049.88;5009542;28;20045;-70
2023/12/18 02:38:25;;;;;;;20.30;7.35;;;;;;;0.75;100.00;103055.03;5009593;28;20036;-71
2023/12/18 02:40:50;;;;;;;16.20;6.35;;;;;;;0.73;100.00;103057.63;5006943;28;20046;-71
2023/12/18 02:43:16;;;;;;;19.38;7.07;;;;;;;0.73;100.00;103054.25;5011552;28;20036;-70
2023/12/18 02:45:41;;;;;;;17.25;6.10;;;;;;;0.73;100.00;103046.56;5005012;28;20065;-70
2023/12/18 02:48:07;;;;;;;18.27;6.43;;;;;;;0.73;100.00;103046.56;5010286;28;20521;-70
2023/12/18 02:50:32;;;;;;;13.57;6.00;;;;;;;0.70;100.00;103044.13;5009200;28;20504;-70
2023/12/18 02:52:58;;;;;;;20.33;6.60;;;;;;;0.76;100.00;103038.84;5010180;28;20042;-70
2023/12/18 02:55:23;;;;;;;17.77;6.97;;;;;;;0.78;100.00;103050.69;5007885;28;20041;-70
2023/12/18 02:57:48;;;;;;;23.85;6.93;;;;;;;0.77;100.00;103050.72;5007080;28;20048;-70
2023/12/18 03:00:14;;;;;;;16.90;6.72;;;;;;;0.75;100.00;103043.13;5009671;28;20042;-70
2023/12/18 03:02:40;;;;;;;13.82;6.25;;;;;;;0.70;100.00;103044.94;5011557;28;20041;-70
2023/12/18 03:05:05;;;;;;;17.63;6.93;;;;;;;0.67;100.00;103041.63;5005848;28;21659;-70
2023/12/18 03:07:31;;;;;;;13.82;6.30;;;;;;;0.65;100.00;103035.72;5011927;28;20033;-70
2023/12/18 03:09:56;;;;;;;18.90;6.97;;;;;;;0.68;100.00;103044.16;5008815;28;20404;-70
2023/12/18 03:12:22;;;;;;;13.93;6.13;;;;;;;0.69;100.00;103042.44;5009255;28;20030;-70
2023/12/18 03:14:47;;;;;;;18.80;6.00;;;;;;;0.69;100.00;103042.44;5006242;28;20532;-70
2023/12/18 03:17:13;;;;;;;20.05;6.93;;;;;;;0.70;100.00;103039.00;5010047;28;20046;-70
2023/12/18 03:19:38;;;;;;;18.23;6.82;;;;;;;0.67;100.00;103034.78;5010240;28;20062;-70
2023/12/18 03:22:03;;;;;;;22.15;7.03;;;;;;;0.64;100.00;103032.34;5010945;28;20026;-70
2023/12/18 03:24:29;;;;;;;18.83;6.43;;;;;;;0.61;100.00;103029.84;5010822;28;20626;-70
2023/12/18 03:26:55;;;;;;;16.98;7.07;;;;;;;0.56;100.00;103027.38;5006771;28;20034;-70
2023/12/18 03:29:20;;;;;;;17.40;7.35;;;;;;;0.53;100.00;103026.66;5012201;28;20073;-70
2023/12/18 03:31:45;;;;;;;15.63;6.40;;;;;;;0.51;100.00;103029.22;5008233;28;20038;-70
2023/12/18 03:34:11;;;;;;;13.90;6.25;;;;;;;0.50;100.00;103029.25;5007911;28;20084;-70
2023/12/18 03:36:36;;;;;;;12.55;6.15;;;;;;;0.47;100.00;103026.78;5008240;28;20100;-71
2023/12/18 03:39:02;;;;;;;16.92;6.63;;;;;;;0.48;100.00;103025.91;5013192;28;20025;-70
2023/12/18 03:41:27;;;;;;;18.45;6.80;;;;;;;0.49;100.00;103025.88;4991276;28;20540;-70
2023/12/18 03:43:53;;;;;;;17.90;6.22;;;;;;;0.49;100.00;103015.66;4992551;28;20033;-70
2023/12/18 03:46:18;;;;;;;15.10;6.80;;;;;;;0.48;100.00;103011.41;5008965;28;20034;-70
2023/12/18 03:48:43;;;;;;;16.10;6.35;;;;;;;0.46;100.00;103002.13;5009376;28;20038;-70
2023/12/18 03:51:12;;;;;;;19.42;7.63;;;;;;;0.44;100.00;103004.72;5008732;28;20049;-70
2023/12/18 03:53:38;;;;;;;26.83;7.50;;;;;;;0.40;100.00;103000.56;5011028;28;20115;-70
2023/12/18 03:56:04;;;;;;;15.35;8.05;;;;;;;0.38;100.00;102997.22;5008607;28;20696;-70
2023/12/18 03:58:29;;;;;;;17.92;8.18;;;;;;;0.36;100.00;102998.97;5006537;28;20053;-70
2023/12/18 04:00:55;;;;;;;20.35;7.35;;;;;;;0.32;100.00;102993.09;5011407;28;20038;-70
2023/12/18 04:03:20;;;;;;;23.48;7.22;;;;;;;0.31;100.00;102993.13;5015873;28;20026;-70
2023/12/18 04:05:46;;;;;;;13.43;6.70;;;;;;;0.29;100.00;102995.69;5009277;28;20038;-70
2023/12/18 04:08:11;;;;;;;13.77;7.28;;;;;;;0.28;100.00;102998.28;5013317;28;20034;-70
2023/12/18 04:10:36;;;;;;;15.25;7.78;;;;;;;0.25;100.00;102993.25;5009638;28;20042;-70
2023/12/18 04:13:02;;;;;;;17.17;8.43;;;;;;;0.23;100.00;102989.88;5013445;28;20033;-70
2023/12/18 04:15:28;;;;;;;20.65;7.43;;;;;;;0.20;100.00;102980.59;5012523;28;20035;-70
2023/12/18 04:17:55;;;;;;;19.92;6.88;;;;;;;0.22;100.00;102988.22;5011364;28;20477;-70
2023/12/18 04:20:20;;;;;;;17.98;7.28;;;;;;;0.21;100.00;102996.75;5011885;28;20057;-70
2023/12/18 04:22:46;;;;;;;25.65;8.00;;;;;;;0.18;100.00;103002.75;5015449;28;20038;-70
2023/12/18 04:25:11;;;;;;;19.67;6.35;;;;;;;0.14;100.00;103004.53;5011570;28;20042;-70
2023/12/18 04:27:37;;;;;;;17.33;6.68;;;;;;;0.12;100.00;103001.19;5012647;28;20030;-70
2023/12/18 04:30:03;;;;;;;15.20;6.82;;;;;;;0.09;100.00;103002.97;5015020;28;22208;-70
2023/12/18 04:32:28;;;;;;;16.48;7.82;;;;;;;0.06;100.00;103003.88;5010314;28;20358;-69
2023/12/18 04:34:54;;;;;;;21.17;7.32;;;;;;;0.06;100.00;103006.44;5011049;28;20049;-70
2023/12/18 04:37:19;;;;;;;16.65;6.70;;;;;;;0.04;100.00;103004.78;5009465;28;20034;-70
2023/12/18 04:39:45;;;;;;;18.65;7.68;;;;;;;0.01;100.00;103002.31;5012647;28;20053;-70
2023/12/18 04:42:10;;;;;;;14.18;6.28;;;;;;;-0.02;100.00;103005.75;5015604;28;20033;-70
2023/12/18 04:44:36;;;;;;;14.07;6.60;;;;;;;-0.05;100.00;103010.94;5013381;28;20512;-70
2023/12/18 04:47:01;;;;;;;19.60;6.97;;;;;;;-0.05;100.00;103026.25;5017661;28;20499;-70
2023/12/18 04:49:27;;;;;;;12.52;6.57;;;;;;;-0.06;100.00;103016.88;4999847;28;20025;-70
2023/12/18 04:51:52;;;;;;;19.25;7.40;;;;;;;-0.05;100.00;103026.25;5017762;28;20394;-70
2023/12/18 04:54:18;;;;;;;23.75;7.20;;;;;;;-0.04;100.00;103020.25;5015707;28;20030;-70
2023/12/18 04:56:43;;;;;;;17.45;6.85;;;;;;;-0.04;100.00;103018.56;5010843;28;20440;-70
2023/12/18 04:59:10;;;;;;;15.13;6.78;;;;;;;-0.02;100.00;103026.16;5008445;28;20879;-70
2023/12/18 05:01:36;;;;;;;16.30;7.50;;;;;;;-0.02;100.00;103023.59;5011407;28;20132;-70
2023/12/18 05:04:02;;;;;;;15.15;6.43;;;;;;;-0.01;100.00;103023.56;5012901;28;20038;-70
2023/12/18 05:06:28;;;;;;;13.82;7.35;;;;;;;0.01;100.00;103026.09;5008718;28;20748;-70
2023/12/18 05:08:54;;;;;;;13.75;6.13;;;;;;;0.03;100.00;103019.25;5012440;28;20084;-70
2023/12/18 05:11:23;;;;;;;18.95;7.25;;;;;;;0.06;100.00;103018.31;5011025;28;20045;-70
2023/12/18 05:13:48;;;;;;;15.88;7.45;;;;;;;0.09;100.00;103018.28;5013892;28;20033;-70
2023/12/18 05:16:15;;;;;;;23.75;10.20;;;;;;;0.12;100.00;103018.22;5009182;28;20061;-70
2023/12/18 05:18:41;;;;;;;21.42;9.20;;;;;;;0.17;100.00;103017.25;5010902;28;20048;-70
2023/12/18 05:21:06;;;;;;;19.52;8.95;;;;;;;0.25;100.00;103016.22;5011313;28;20033;-70
2023/12/18 05:23:32;;;;;;;19.77;7.45;;;;;;;0.31;100.00;103013.53;5011367;28;20075;-70
2023/12/18 05:25:58;;;;;;;18.58;8.02;;;;;;;0.37;100.00;103011.66;5013234;28;20057;-70
2023/12/18 05:28:24;;;;;;;14.10;7.50;;;;;;;0.37;100.00;103006.56;5018875;28;20034;-70
2023/12/18 05:30:50;;;;;;;18.42;7.60;;;;;;;0.38;100.00;103007.41;5020197;28;20076;-70
2023/12/18 05:33:15;;;;;;;26.65;9.35;;;;;;;0.43;100.00;102999.63;5014877;28;20759;-70
2023/12/18 05:35:41;;;;;;;23.50;8.30;;;;;;;0.48;100.00;103008.88;5011930;28;20038;-70
2023/12/18 05:38:07;;;;;;;17.67;8.18;;;;;;;0.49;100.00;103018.22;5010874;28;20492;-70
2023/12/18 05:40:36;;;;;;;23.77;8.23;;;;;;;0.53;100.00;103019.81;5011275;28;20128;-70
2023/12/18 05:43:02;;;;;;;22.58;8.75;;;;;;;0.56;100.00;103018.88;5010420;28;20076;-71
2023/12/18 05:45:28;;;;;;;24.20;8.77;;;;;;;0.65;100.00;103022.94;5011019;28;20121;-70
2023/12/18 05:47:54;;;;;;;20.40;8.63;;;;;;;0.66;100.00;103015.25;5014566;28;20030;-70
2023/12/18 05:50:19;;;;;;;20.40;8.77;;;;;;;0.69;100.00;103019.44;5012377;28;20100;-70
2023/12/18 05:52:44;;;;;;;26.30;11.52;;;;;;;0.71;100.00;103022.78;5008939;28;20077;-71
2023/12/18 05:55:10;;;;;;;32.67;13.55;;;;;;;0.81;100.00;103025.94;5019925;28;20046;-70
2023/12/18 05:57:36;;;;;;;41.53;15.60;;;;;;;0.99;100.00;103017.81;5008490;28;20037;-71
2023/12/18 06:00:05;;;;;;;35.28;15.63;;;;;;;1.04;100.00;103017.72;5008814;28;20030;-71
2023/12/18 06:02:31;;;;;;;42.88;18.63;;;;;;;1.17;100.00;103027.56;5011530;28;20552;-71
2023/12/18 06:04:56;;;;;;;51.45;20.02;;;;;;;1.58;100.00;103018.81;5008610;28;20094;-71
2023/12/18 06:07:22;;;;;;;58.75;21.15;;;;;;;1.65;100.00;103005.81;5006855;28;20485;-70
2023/12/18 06:09:47;;;;;;;55.03;20.55;;;;;;;1.73;100.00;103009.00;5012663;28;20041;-71
2023/12/18 06:12:13;;;;;;;48.17;20.42;;;;;;;1.70;100.00;103005.69;5008940;28;20037;-71
2023/12/18 06:14:38;;;;;;;49.10;20.92;;;;;;;1.69;100.00;103004.81;5008941;28;20527;-71
2023/12/18 06:17:04;;;;;;;49.63;19.80;;;;;;;1.79;100.00;103000.31;5010248;28;20752;-71
2023/12/18 06:19:29;;;;;;;49.72;19.80;;;;;;;1.78;100.00;102996.06;5008191;28;20040;-71
2023/12/18 06:21:55;;;;;;;48.67;21.33;;;;;;;1.95;100.00;102995.56;5010647;28;20049;-71
2023/12/18 06:24:20;;;;;;;42.95;19.27;;;;;;;2.02;100.00;103006.47;5013507;28;20057;-70
2023/12/18 06:26:46;;;;;;;46.33;18.25;;;;;;;2.05;100.00;103007.19;5009567;28;20045;-71
2023/12/18 06:29:11;;;;;;;44.08;19.23;;;;;;;2.00;100.00;103010.75;5010106;28;20029;-71
2023/12/18 06:31:37;;;;;;;40.20;18.08;;;;;;;2.04;100.00;103000.41;5010202;28;20080;-71
2023/12/18 06:34:03;;;;;;;44.28;19.42;;;;;;;2.12;100.00;103012.97;5009184;28;20050;-71
2023/12/18 06:36:29;;;;;;;39.92;17.45;;;;;;;2.17;100.00;103011.09;5013666;28;20045;-71
2023/12/18 06:38:54;;;;;;;40.95;16.40;;;;;;;2.16;100.00;103019.66;5009101;28;20030;-71
2023/12/18 06:41:20;;;;;;;43.45;16.83;;;;;;;2.19;100.00;103018.75;5005698;28;20034;-71
2023/12/18 06:43:45;;;;;;;40.08;17.45;;;;;;;2.22;100.00;103013.50;5015577;28;20037;-71
2023/12/18 06:46:11;;;;;;;43.42;17.17;;;;;;;2.27;100.00;103009.91;5012887;28;20037;-72
2023/12/18 06:48:40;;;;;;;40.20;16.73;;;;;;;2.19;100.00;103014.44;5005180;28;20137;-71
2023/12/18 06:51:08;;;;;;;41.42;16.63;;;;;;;2.20;100.00;103012.72;5011553;28;20034;-71
2023/12/18 06:53:34;;;;;;;41.95;17.50;;;;;;;2.26;100.00;103012.53;5009037;28;20053;-71
2023/12/18 06:55:59;;;;;;;44.80;17.23;;;;;;;2.27;100.00;103014.22;5011766;28;20049;-71
2023/12/18 06:58:25;;;;;;;40.63;16.67;;;;;;;2.41;100.00;103012.06;5010262;28;20034;-72
2023/12/18 07:00:50;;;;;;;40.72;18.17;;;;;;;2.48;100.00;103003.28;5009733;28;20038;-71
2023/12/18 07:03:15;;;;;;;43.58;17.38;;;;;;;2.42;100.00;103003.47;5012524;28;20030;-71
2023/12/18 07:05:42;;;;;;;37.03;16.10;;;;;;;2.43;100.00;103010.28;5016791;28;20044;-71
2023/12/18 07:08:07;;;;;;;48.13;18.08;;;;;;;2.47;100.00;103000.78;5010506;28;20635;-71
2023/12/18 07:10:32;;;;;;;39.55;15.93;;;;;;;2.48;100.00;103010.13;5009647;28;20038;-71
2023/12/18 07:12:58;;;;;;;45.45;17.05;;;;;;;2.36;100.00;103005.41;5009102;28;20372;-71
2023/12/18 07:15:25;;;;;;;42.95;17.52;;;;;;;2.43;100.00;103007.72;5000920;28;20416;-71
2023/12/18 07:17:51;;;;;;;45.92;18.00;;;;;;;2.37;100.00;103013.03;5009599;28;20532;-71
2023/12/18 07:20:16;;;;;;;45.08;17.65;;;;;;;2.48;100.00;103015.25;5008930;28;20046;-71
2023/12/18 07:22:42;;;;;;;44.72;18.20;;;;;;;2.44;100.00;103011.13;5009370;28;20034;-72
2023/12/18 07:25:09;;;;;;;47.35;18.02;;;;;;;2.45;100.00;103015.34;5007889;28;20438;-71
2023/12/18 07:27:35;;;;;;;45.95;19.08;;;;;;;2.56;100.00;103020.13;5013658;28;20540;-71
2023/12/18 07:30:03;;;;;;;48.67;18.00;;;;;;;2.55;100.00;103021.84;5003961;28;20520;-71
2023/12/18 07:32:32;;;;;;;38.55;17.13;;;;;;;2.59;100.00;103018.31;5011047;28;20033;-71
2023/12/18 07:35:00;;;;;;;45.97;19.20;;;;;;;2.64;100.00;103016.44;5010559;28;20048;-71
2023/12/18 07:37:30;;;;;;;45.85;19.05;;;;;;;2.62;100.00;103009.66;5014455;28;20512;-71
2023/12/18 07:39:56;;;;;;;43.20;18.25;;;;;;;2.52;100.00;103009.13;5013297;28;20049;-71
2023/12/18 07:42:21;;;;;;;43.78;18.55;;;;;;;2.51;100.00;103008.31;5017226;28;20045;-71
2023/12/18 07:44:47;;;;;;;46.83;17.65;;;;;;;2.59;100.00;103007.22;5014334;28;20042;-71
2023/12/18 07:47:14;;;;;;;44.97;17.88;;;;;;;2.54;100.00;103009.91;5015950;28;20044;-71
2023/12/18 07:49:39;;;;;;;45.65;18.48;;;;;;;2.62;100.00;103009.66;5014036;28;20389;-71
2023/12/18 07:52:05;;;;;;;46.30;17.83;;;;;;;2.70;100.00;103005.16;5013688;28;20040;-71
2023/12/18 07:54:30;;;;;;;41.92;17.33;;;;;;;2.65;100.00;103004.47;5010483;28;20068;-71
2023/12/18 07:56:56;;;;;;;43.00;18.20;;;;;;;2.61;100.00;103008.00;5018208;28;20034;-71
2023/12/18 07:59:21;;;;;;;42.63;19.38;;;;;;;2.59;100.00;103002.94;5012892;28;20045;-70
2023/12/18 08:01:46;;;;;;;50.17;21.73;;;;;;;2.74;100.00;103006.72;4996439;28;20037;-71
2023/12/18 08:04:13;;;;;;;53.08;21.88;;;;;;;2.77;100.00;103009.19;5013237;28;20036;-71
2023/12/18 08:06:38;;;;;;;54.33;22.60;;;;;;;2.69;100.00;103008.59;5009503;28;20045;-71
2023/12/18 08:09:04;;;;;;;47.45;20.40;;;;;;;2.69;100.00;103013.72;5014052;28;20049;-71
2023/12/18 08:11:30;;;;;;;49.60;22.05;;;;;;;2.74;100.00;103016.97;5019062;28;20084;-71
2023/12/18 08:13:56;;;;;;;48.58;21.52;;;;;;;2.69;100.00;103014.56;5019715;28;20025;-71
2023/12/18 08:16:23;;;;;;;57.10;21.63;;;;;;;2.75;100.00;103008.41;5013809;28;20551;-71
2023/12/18 08:18:48;;;;;;;52.80;20.80;;;;;;;2.77;100.00;103013.44;5008917;28;20038;-71
2023/12/18 08:21:14;;;;;;;53.55;20.95;;;;;;;2.90;100.00;103015.56;5012985;28;20034;-72
2023/12/18 08:23:41;;;;;;;48.95;20.05;;;;;;;2.78;100.00;103017.72;5014430;28;20099;-71
2023/12/18 08:26:09;;;;;;;51.90;19.60;;;;;;;2.85;100.00;103008.94;5014835;28;20037;-70
2023/12/18 08:28:34;;;;;;;47.45;19.77;;;;;;;2.83;100.00;103020.97;5013211;28;20052;-70
2023/12/18 08:31:00;;;;;;;42.03;18.48;;;;;;;2.76;100.00;103020.31;5014751;28;20452;-71
2023/12/18 08:33:25;;;;;;;46.70;19.90;;;;;;;2.69;100.00;103009.44;5008949;28;20439;-71
2023/12/18 08:35:50;;;;;;;50.05;19.42;;;;;;;2.79;100.00;102994.59;5006645;28;20652;-70
2023/12/18 08:38:16;;;;;;;55.60;19.35;;;;;;;2.89;100.00;102997.69;5015290;28;20408;-71
2023/12/18 08:40:41;;;;;;;50.97;21.08;;;;;;;2.79;100.00;103007.41;5013444;28;20102;-71
2023/12/18 08:43:07;;;;;;;52.63;20.08;;;;;;;2.83;100.00;102997.91;5015697;28;20402;-71
2023/12/18 08:45:32;;;;;;;51.65;19.60;;;;;;;2.83;100.00;102991.03;5010945;28;20626;-70
2023/12/18 08:47:59;;;;;;;44.22;18.80;;;;;;;2.84;100.00;102999.56;4994112;28;20034;-71
2023/12/18 08:50:26;;;;;;;48.35;20.45;;;;;;;2.88;100.00;102983.19;5012569;28;20034;-71
2023/12/18 08:52:52;;;;;;;41.72;19.83;;;;;;;2.90;100.00;102973.72;5013467;28;20386;-71
2023/12/18 08:55:19;;;;;;;48.35;20.52;;;;;;;2.89;100.00;102982.31;5014942;28;20044;-71
2023/12/18 08:57:44;;;;;;;48.78;21.63;;;;;;;2.80;100.00;102982.63;5012787;28;20034;-71
2023/12/18 09:00:11;;;;;;;47.72;21.35;;;;;;;2.81;100.00;102972.31;5011048;28;20041;-71
2023/12/18 09:02:36;;;;;;;51.63;22.67;;;;;;;2.81;100.00;102979.19;5013499;28;20048;-71
2023/12/18 09:05:02;;;;;;;59.38;23.77;;;;;;;3.02;100.00;102973.28;5013895;28;20674;-71
2023/12/18 09:07:27;;;;;;;47.20;21.92;;;;;;;3.00;100.00;102966.56;5014164;28;20473;-71
2023/12/18 09:09:53;;;;;;;44.63;19.85;;;;;;;3.05;100.00;102969.78;5009156;28;20103;-71
2023/12/18 09:12:18;;;;;;;46.17;20.15;;;;;;;3.02;100.00;102970.72;5014841;28;20021;-71
2023/12/18 09:14:44;;;;;;;49.20;20.10;;;;;;;3.05;100.00;102962.94;4997097;28;20049;-72
2023/12/18 09:17:09;;;;;;;55.33;21.92;;;;;;;3.14;100.00;102955.81;5006137;28;20149;-70
2023/12/18 09:19:35;;;;;;;49.42;20.80;;;;;;;3.05;100.00;102954.41;5011031;28;20037;-70
2023/12/18 09:22:01;;;;;;;43.70;19.42;;;;;;;3.07;100.00;102952.59;5011065;28;20413;-71
2023/12/18 09:24:26;;;;;;;46.85;20.85;;;;;;;3.01;100.00;102953.66;5010854;28;20045;-71
2023/12/18 09:26:52;;;;;;;47.08;20.77;;;;;;;3.04;100.00;102953.56;5009348;28;20034;-71
2023/12/18 09:29:18;;;;;;;55.45;21.02;;;;;;;3.17;100.00;102951.41;5013385;28;20049;-71
2023/12/18 09:31:43;;;;;;;50.53;20.27;;;;;;;3.12;100.00;102948.16;5011114;28;20045;-71
2023/12/18 09:34:08;;;;;;;46.50;20.30;;;;;;;3.06;100.00;102954.34;5016548;28;20120;-71
2023/12/18 09:36:36;;;;;;;42.65;20.42;;;;;;;3.08;100.00;102950.00;5012786;28;20034;-71
2023/12/18 09:39:02;;;;;;;49.45;20.70;;;;;;;3.15;100.00;102949.81;5012943;28;20046;-71
2023/12/18 09:41:27;;;;;;;47.95;20.00;;;;;;;3.25;100.00;102951.13;5012789;28;20041;-71
2023/12/18 09:43:54;;;;;;;48.15;21.48;;;;;;;3.21;100.00;102950.41;5008694;28;20034;-71
2023/12/18 09:46:24;;;;;;;46.58;20.80;;;;;;;3.28;100.00;102949.28;4992341;28;20521;-71
2023/12/18 09:48:50;;;;;;;46.33;19.77;;;;;;;3.23;100.00;102946.06;5011654;28;20060;-71
2023/12/18 09:51:19;;;;;;;39.75;18.65;;;;;;;3.26;100.00;102940.00;5012347;28;20408;-71
2023/12/18 09:53:46;;;;;;;39.70;19.35;;;;;;;3.27;100.00;102941.66;5014971;28;20025;-71
2023/12/18 09:56:11;;;;;;;41.25;19.02;;;;;;;3.31;100.00;102938.94;5011641;28;20049;-72
2023/12/18 09:58:39;;;;;;;45.50;19.73;;;;;;;3.36;100.00;102943.06;5008792;28;20529;-72
2023/12/18 10:01:05;;;;;;;45.75;18.80;;;;;;;3.34;100.00;102939.72;5012288;28;20069;-71
2023/12/18 10:03:31;;;;;;;41.58;18.13;;;;;;;3.40;100.00;102945.44;5010030;28;20052;-70
2023/12/18 10:05:56;;;;;;;44.17;18.67;;;;;;;3.43;100.00;102941.94;4993729;28;20042;-71
2023/12/18 10:08:21;;;;;;;40.55;17.42;;;;;;;3.40;100.00;102942.03;5010263;28;20025;-72
2023/12/18 10:10:47;;;;;;;39.30;17.70;;;;;;;3.46;100.00;102941.81;4994180;28;20397;-71
2023/12/18 10:13:13;;;;;;;42.28;18.30;;;;;;;3.49;100.00;102950.22;5009934;28;20037;-71
2023/12/18 10:15:41;;;;;;;36.42;15.88;;;;;;;3.50;100.00;102944.22;4993705;28;20065;-70
2023/12/18 10:18:07;;;;;;;40.13;16.80;;;;;;;3.57;100.00;102954.22;5009406;28;20456;-71
2023/12/18 10:20:34;;;;;;;48.88;16.73;;;;;;;3.55;100.00;102959.41;5006357;28;20054;-70
2023/12/18 10:23:00;;;;;;;38.20;17.13;;;;;;;3.46;100.00;102954.63;5015177;28;20041;-71
2023/12/18 10:25:26;;;;;;;44.10;17.15;;;;;;;3.59;100.00;102949.88;5009578;28;20034;-70
2023/12/18 10:27:55;;;;;;;42.20;16.77;;;;;;;3.63;100.00;102946.31;4996719;28;20396;-71
2023/12/18 10:30:25;;;;;;;41.20;16.00;;;;;;;3.68;100.00;102944.41;4980543;28;20631;-71
2023/12/18 10:32:54;;;;;;;38.70;16.10;;;;;;;3.59;100.00;102944.75;5018446;28;20096;-71
2023/12/18 10:35:21;;;;;;;38.65;15.68;;;;;;;3.65;100.00;102929.94;5006569;28;20057;-71
2023/12/18 10:37:54;;;;;;;46.05;16.92;;;;;;;3.63;100.00;102941.16;5009768;28;20035;-71
2023/12/18 10:40:22;;;;;;;39.75;16.67;;;;;;;3.59;100.00;102937.06;5008862;28;20539;-71
2023/12/18 10:43:21;;;;;;;31.45;15.63;;;;;;;3.64;100.00;102930.84;5010822;28;20112;-71
2023/12/18 10:45:48;;;;;;;37.22;15.63;;;;;;;3.76;100.00;102926.97;5016075;28;20056;-71
2023/12/18 10:48:17;;;;;;;40.55;15.88;;;;;;;3.64;100.00;102927.47;5010956;28;20041;-72
2023/12/18 10:50:44;;;;;;;38.15;14.50;;;;;;;3.60;100.00;102926.72;5013688;28;20065;-71
2023/12/18 10:53:11;;;;;;;33.30;14.43;;;;;;;3.63;100.00;102934.28;5010078;28;20041;-71
2023/12/18 10:55:38;;;;;;;29.90;13.55;;;;;;;3.75;100.00;102934.72;5010806;28;20124;-71
2023/12/18 10:58:05;;;;;;;32.97;13.82;;;;;;;3.75;100.00;102930.44;5013666;28;20034;-72
2023/12/18 11:00:33;;;;;;;41.30;17.10;;;;;;;3.67;100.00;102932.44;5008575;28;20030;-71
2023/12/18 11:03:01;;;;;;;32.28;15.02;;;;;;;3.67;100.00;102927.31;5012653;28;20025;-71
2023/12/18 11:05:27;;;;;;;43.63;20.17;;;;;;;3.70;100.00;102925.47;5011861;28;20439;-71